sensor_id;sensor_type;location;lat;lon;timestamp;temperature;humidity
22765;DHT22;11549;50.852;3.816;2024-01-27T00:01:22;4.50;99.90
22765;DHT22;11549;50.852;3.816;2024-01-27T00:03:50;4.50;99.90
22765;DHT22;11549;50.852;3.816;2024-01-27T00:06:20;4.40;99.90
22765;DHT22;11549;50.852;3.816;2024-01-27T00:08:49;4.40;99.90
22765;DHT22;11549;50.852;3.816;2024-01-27T00:11:18;4.40;99.90
22765;DHT22;11549;50.852;3.816;2024-01-27T00:13:46;4.40;99.90
22765;DHT22;11549;50.852;3.816;2024-01-27T00:16:16;4.40;99.90
22765;DHT22;11549;50.852;3.816;2024-01-27T00:18:45;4.40;99.90
22765;DHT22;11549;50.852;3.816;2024-01-27T00:21:14;4.30;99.90
22765;DHT22;11549;50.852;3.816;2024-01-27T00:23:42;4.40;99.90
22765;DHT22;11549;50.852;3.816;2024-01-27T00:26:10;4.30;99.90
22765;DHT22;11549;50.852;3.816;2024-01-27T00:28:39;4.40;99.90
22765;DHT22;11549;50.852;3.816;2024-01-27T00:31:07;4.30;99.90
22765;DHT22;11549;50.852;3.816;2024-01-27T00:33:37;4.30;99.90
22765;DHT22;11549;50.852;3.816;2024-01-27T00:36:06;4.30;99.90
22765;DHT22;11549;50.852;3.816;2024-01-27T00:38:34;4.30;99.90
22765;DHT22;11549;50.852;3.816;2024-01-27T00:41:03;4.30;99.90
22765;DHT22;11549;50.852;3.816;2024-01-27T00:43:31;4.30;99.90
22765;DHT22;11549;50.852;3.816;2024-01-27T00:46:00;4.30;99.90
22765;DHT22;11549;50.852;3.816;2024-01-27T00:48:28;4.30;99.90
22765;DHT22;11549;50.852;3.816;2024-01-27T00:50:58;4.20;99.90
22765;DHT22;11549;50.852;3.816;2024-01-27T00:53:26;4.20;99.90
22765;DHT22;11549;50.852;3.816;2024-01-27T00:55:54;4.20;99.90
22765;DHT22;11549;50.852;3.816;2024-01-27T00:58:23;4.20;99.90
22765;DHT22;11549;50.852;3.816;2024-01-27T01:00:51;4.10;99.90
22765;DHT22;11549;50.852;3.816;2024-01-27T01:03:20;4.10;99.90
22765;DHT22;11549;50.852;3.816;2024-01-27T01:05:49;4.10;99.90
22765;DHT22;11549;50.852;3.816;2024-01-27T01:08:19;4.10;99.90
22765;DHT22;11549;50.852;3.816;2024-01-27T01:10:47;4.10;99.90
22765;DHT22;11549;50.852;3.816;2024-01-27T01:13:16;4.10;99.90
22765;DHT22;11549;50.852;3.816;2024-01-27T01:15:44;4.10;99.90
22765;DHT22;11549;50.852;3.816;2024-01-27T01:18:13;4.10;99.90
22765;DHT22;11549;50.852;3.816;2024-01-27T01:20:42;4.10;99.90
22765;DHT22;11549;50.852;3.816;2024-01-27T01:23:10;4.00;99.90
22765;DHT22;11549;50.852;3.816;2024-01-27T01:25:40;4.00;99.90
22765;DHT22;11549;50.852;3.816;2024-01-27T01:28:08;4.00;99.90
22765;DHT22;11549;50.852;3.816;2024-01-27T01:30:37;4.00;99.90
22765;DHT22;11549;50.852;3.816;2024-01-27T01:33:05;4.00;99.90
22765;DHT22;11549;50.852;3.816;2024-01-27T01:35:34;4.00;99.90
22765;DHT22;11549;50.852;3.816;2024-01-27T01:38:02;4.00;99.90
22765;DHT22;11549;50.852;3.816;2024-01-27T01:40:30;3.90;99.90
22765;DHT22;11549;50.852;3.816;2024-01-27T01:43:00;3.90;99.90
22765;DHT22;11549;50.852;3.816;2024-01-27T01:45:30;3.90;99.90
22765;DHT22;11549;50.852;3.816;2024-01-27T01:47:58;3.90;99.90
22765;DHT22;11549;50.852;3.816;2024-01-27T01:50:27;3.90;99.90
22765;DHT22;11549;50.852;3.816;2024-01-27T01:52:56;3.90;99.90
22765;DHT22;11549;50.852;3.816;2024-01-27T01:55:24;3.90;99.90
22765;DHT22;11549;50.852;3.816;2024-01-27T01:57:53;3.90;99.90
22765;DHT22;11549;50.852;3.816;2024-01-27T02:00:23;4.00;99.90
22765;DHT22;11549;50.852;3.816;2024-01-27T02:02:51;3.90;99.90
22765;DHT22;11549;50.852;3.816;2024-01-27T02:05:20;4.00;99.90
22765;DHT22;11549;50.852;3.816;2024-01-27T02:07:48;4.00;99.90
22765;DHT22;11549;50.852;3.816;2024-01-27T02:10:17;4.00;99.90
22765;DHT22;11549;50.852;3.816;2024-01-27T02:12:46;3.90;99.90
22765;DHT22;11549;50.852;3.816;2024-01-27T02:15:14;3.90;99.90
22765;DHT22;11549;50.852;3.816;2024-01-27T02:17:44;3.90;99.90
22765;DHT22;11549;50.852;3.816;2024-01-27T02:20:13;4.00;99.90
22765;DHT22;11549;50.852;3.816;2024-01-27T02:22:41;4.00;99.90
22765;DHT22;11549;50.852;3.816;2024-01-27T02:25:11;4.00;99.90
22765;DHT22;11549;50.852;3.816;2024-01-27T02:27:39;4.00;99.90
22765;DHT22;11549;50.852;3.816;2024-01-27T02:30:08;4.00;99.90
22765;DHT22;11549;50.852;3.816;2024-01-27T02:32:37;3.90;99.90
22765;DHT22;11549;50.852;3.816;2024-01-27T02:35:06;3.90;99.90
22765;DHT22;11549;50.852;3.816;2024-01-27T02:37:35;3.90;99.90
22765;DHT22;11549;50.852;3.816;2024-01-27T02:40:04;4.10;99.90
22765;DHT22;11549;50.852;3.816;2024-01-27T02:42:34;4.20;99.90
22765;DHT22;11549;50.852;3.816;2024-01-27T02:45:03;4.20;99.90
22765;DHT22;11549;50.852;3.816;2024-01-27T02:47:32;4.10;99.90
22765;DHT22;11549;50.852;3.816;2024-01-27T02:50:00;3.90;99.90
22765;DHT22;11549;50.852;3.816;2024-01-27T02:52:29;3.80;99.90
22765;DHT22;11549;50.852;3.816;2024-01-27T02:54:57;3.80;99.90
22765;DHT22;11549;50.852;3.816;2024-01-27T02:57:26;3.80;99.90
22765;DHT22;11549;50.852;3.816;2024-01-27T02:59:56;3.80;99.90
22765;DHT22;11549;50.852;3.816;2024-01-27T03:02:24;3.80;99.90
22765;DHT22;11549;50.852;3.816;2024-01-27T03:04:53;3.80;99.90
22765;DHT22;11549;50.852;3.816;2024-01-27T03:07:21;3.90;99.90
22765;DHT22;11549;50.852;3.816;2024-01-27T03:09:49;3.80;99.90
22765;DHT22;11549;50.852;3.816;2024-01-27T03:12:19;3.80;99.90
22765;DHT22;11549;50.852;3.816;2024-01-27T03:14:50;3.80;99.90
22765;DHT22;11549;50.852;3.816;2024-01-27T03:17:20;3.70;99.90
22765;DHT22;11549;50.852;3.816;2024-01-27T03:19:48;3.60;99.90
22765;DHT22;11549;50.852;3.816;2024-01-27T03:22:17;3.60;99.90
22765;DHT22;11549;50.852;3.816;2024-01-27T03:24:45;3.60;99.90
22765;DHT22;11549;50.852;3.816;2024-01-27T03:27:14;3.50;99.90
22765;DHT22;11549;50.852;3.816;2024-01-27T03:29:42;3.30;99.90
22765;DHT22;11549;50.852;3.816;2024-01-27T03:32:10;3.10;99.90
22765;DHT22;11549;50.852;3.816;2024-01-27T03:34:44;3.20;99.90
22765;DHT22;11549;50.852;3.816;2024-01-27T03:37:13;3.10;99.90
22765;DHT22;11549;50.852;3.816;2024-01-27T03:39:41;3.10;99.90
22765;DHT22;11549;50.852;3.816;2024-01-27T03:42:10;3.10;99.90
22765;DHT22;11549;50.852;3.816;2024-01-27T03:44:39;3.10;99.90
22765;DHT22;11549;50.852;3.816;2024-01-27T03:47:07;3.00;99.90
22765;DHT22;11549;50.852;3.816;2024-01-27T03:49:36;3.00;99.90
22765;DHT22;11549;50.852;3.816;2024-01-27T03:52:06;3.00;99.90
22765;DHT22;11549;50.852;3.816;2024-01-27T03:54:34;2.90;99.90
22765;DHT22;11549;50.852;3.816;2024-01-27T03:57:03;2.90;99.90
22765;DHT22;11549;50.852;3.816;2024-01-27T03:59:31;3.00;99.90
22765;DHT22;11549;50.852;3.816;2024-01-27T04:01:59;3.00;99.90
22765;DHT22;11549;50.852;3.816;2024-01-27T04:04:28;3.00;99.90
22765;DHT22;11549;50.852;3.816;2024-01-27T04:06:57;3.00;99.90
22765;DHT22;11549;50.852;3.816;2024-01-27T04:09:27;3.00;99.90
22765;DHT22;11549;50.852;3.816;2024-01-27T04:11:55;3.10;99.90
22765;DHT22;11549;50.852;3.816;2024-01-27T04:14:24;3.10;99.90
22765;DHT22;11549;50.852;3.816;2024-01-27T04:16:52;3.10;99.90
22765;DHT22;11549;50.852;3.816;2024-01-27T04:19:21;3.10;99.90
22765;DHT22;11549;50.852;3.816;2024-01-27T04:21:50;3.10;99.90
22765;DHT22;11549;50.852;3.816;2024-01-27T04:24:18;3.20;99.90
22765;DHT22;11549;50.852;3.816;2024-01-27T04:26:48;3.10;99.90
22765;DHT22;11549;50.852;3.816;2024-01-27T04:29:16;3.10;99.90
22765;DHT22;11549;50.852;3.816;2024-01-27T04:31:45;3.00;99.90
22765;DHT22;11549;50.852;3.816;2024-01-27T04:34:13;2.90;99.90
22765;DHT22;11549;50.852;3.816;2024-01-27T04:36:41;2.90;99.90
22765;DHT22;11549;50.852;3.816;2024-01-27T04:39:10;3.00;99.90
22765;DHT22;11549;50.852;3.816;2024-01-27T04:41:41;3.10;99.90
22765;DHT22;11549;50.852;3.816;2024-01-27T04:44:12;3.20;99.90
22765;DHT22;11549;50.852;3.816;2024-01-27T04:46:41;3.10;99.90
22765;DHT22;11549;50.852;3.816;2024-01-27T04:49:09;3.00;99.90
22765;DHT22;11549;50.852;3.816;2024-01-27T04:51:38;2.90;99.90
22765;DHT22;11549;50.852;3.816;2024-01-27T04:54:07;2.80;99.90
22765;DHT22;11549;50.852;3.816;2024-01-27T04:56:36;2.80;99.90
22765;DHT22;11549;50.852;3.816;2024-01-27T04:59:04;2.70;99.90
22765;DHT22;11549;50.852;3.816;2024-01-27T05:01:35;2.80;99.90
22765;DHT22;11549;50.852;3.816;2024-01-27T05:04:03;2.80;99.90
22765;DHT22;11549;50.852;3.816;2024-01-27T05:06:32;2.70;99.90
22765;DHT22;11549;50.852;3.816;2024-01-27T05:09:01;2.70;99.90
22765;DHT22;11549;50.852;3.816;2024-01-27T05:11:30;2.60;99.90
22765;DHT22;11549;50.852;3.816;2024-01-27T05:13:59;2.40;99.90
22765;DHT22;11549;50.852;3.816;2024-01-27T05:16:28;2.40;99.90
22765;DHT22;11549;50.852;3.816;2024-01-27T05:18:58;2.40;99.90
22765;DHT22;11549;50.852;3.816;2024-01-27T05:21:26;2.50;99.90
22765;DHT22;11549;50.852;3.816;2024-01-27T05:23:55;2.60;99.90
22765;DHT22;11549;50.852;3.816;2024-01-27T05:26:22;2.60;99.90
22765;DHT22;11549;50.852;3.816;2024-01-27T05:28:51;2.70;99.90
22765;DHT22;11549;50.852;3.816;2024-01-27T05:31:19;2.70;99.90
22765;DHT22;11549;50.852;3.816;2024-01-27T05:33:48;2.60;99.90
22765;DHT22;11549;50.852;3.816;2024-01-27T05:36:18;2.60;99.90
22765;DHT22;11549;50.852;3.816;2024-01-27T05:38:46;2.70;99.90
22765;DHT22;11549;50.852;3.816;2024-01-27T05:41:15;2.60;99.90
22765;DHT22;11549;50.852;3.816;2024-01-27T05:43:43;2.60;99.90
22765;DHT22;11549;50.852;3.816;2024-01-27T05:46:11;2.70;99.90
22765;DHT22;11549;50.852;3.816;2024-01-27T05:48:40;2.70;99.90
22765;DHT22;11549;50.852;3.816;2024-01-27T05:51:08;2.70;99.90
22765;DHT22;11549;50.852;3.816;2024-01-27T05:53:39;2.80;99.90
22765;DHT22;11549;50.852;3.816;2024-01-27T05:56:07;2.80;99.90
22765;DHT22;11549;50.852;3.816;2024-01-27T05:58:36;2.70;99.90
22765;DHT22;11549;50.852;3.816;2024-01-27T06:01:04;2.60;99.90
22765;DHT22;11549;50.852;3.816;2024-01-27T06:03:33;2.60;99.90
22765;DHT22;11549;50.852;3.816;2024-01-27T06:06:03;2.60;99.90
22765;DHT22;11549;50.852;3.816;2024-01-27T06:08:32;2.70;99.90
22765;DHT22;11549;50.852;3.816;2024-01-27T06:11:01;2.80;99.90
22765;DHT22;11549;50.852;3.816;2024-01-27T06:13:34;2.70;99.90
22765;DHT22;11549;50.852;3.816;2024-01-27T06:16:07;2.70;99.90
22765;DHT22;11549;50.852;3.816;2024-01-27T06:18:37;2.60;99.90
22765;DHT22;11549;50.852;3.816;2024-01-27T06:21:05;2.60;99.90
22765;DHT22;11549;50.852;3.816;2024-01-27T06:23:34;2.60;99.90
22765;DHT22;11549;50.852;3.816;2024-01-27T06:26:06;2.70;99.90
22765;DHT22;11549;50.852;3.816;2024-01-27T06:28:34;2.70;99.90
22765;DHT22;11549;50.852;3.816;2024-01-27T06:31:04;2.60;99.90
22765;DHT22;11549;50.852;3.816;2024-01-27T06:33:34;2.50;99.90
22765;DHT22;11549;50.852;3.816;2024-01-27T06:36:03;2.50;99.90
22765;DHT22;11549;50.852;3.816;2024-01-27T06:38:32;2.60;99.90
22765;DHT22;11549;50.852;3.816;2024-01-27T06:41:00;2.70;99.90
22765;DHT22;11549;50.852;3.816;2024-01-27T06:43:30;2.60;99.90
22765;DHT22;11549;50.852;3.816;2024-01-27T06:45:58;2.60;99.90
22765;DHT22;11549;50.852;3.816;2024-01-27T06:48:27;2.40;99.90
22765;DHT22;11549;50.852;3.816;2024-01-27T06:50:55;2.40;99.90
22765;DHT22;11549;50.852;3.816;2024-01-27T06:53:24;2.40;99.90
22765;DHT22;11549;50.852;3.816;2024-01-27T06:55:52;2.50;99.90
22765;DHT22;11549;50.852;3.816;2024-01-27T06:58:20;2.50;99.90
22765;DHT22;11549;50.852;3.816;2024-01-27T07:00:51;2.40;99.90
22765;DHT22;11549;50.852;3.816;2024-01-27T07:03:19;2.40;99.90
22765;DHT22;11549;50.852;3.816;2024-01-27T07:05:47;2.40;99.90
22765;DHT22;11549;50.852;3.816;2024-01-27T07:08:17;2.40;99.90
22765;DHT22;11549;50.852;3.816;2024-01-27T07:10:45;2.40;99.90
22765;DHT22;11549;50.852;3.816;2024-01-27T07:13:13;2.40;99.90
22765;DHT22;11549;50.852;3.816;2024-01-27T07:15:42;2.40;99.90
22765;DHT22;11549;50.852;3.816;2024-01-27T07:18:12;2.40;99.90
22765;DHT22;11549;50.852;3.816;2024-01-27T07:20:42;2.30;99.90
22765;DHT22;11549;50.852;3.816;2024-01-27T07:23:11;2.40;99.90
22765;DHT22;11549;50.852;3.816;2024-01-27T07:25:39;2.30;99.90
22765;DHT22;11549;50.852;3.816;2024-01-27T07:28:07;2.30;99.90
22765;DHT22;11549;50.852;3.816;2024-01-27T07:30:37;2.40;99.90
22765;DHT22;11549;50.852;3.816;2024-01-27T07:33:05;2.30;99.90
22765;DHT22;11549;50.852;3.816;2024-01-27T07:35:35;2.20;99.90
22765;DHT22;11549;50.852;3.816;2024-01-27T07:38:04;2.30;99.90
22765;DHT22;11549;50.852;3.816;2024-01-27T07:40:32;2.30;99.90
22765;DHT22;11549;50.852;3.816;2024-01-27T07:43:01;2.30;99.90
22765;DHT22;11549;50.852;3.816;2024-01-27T07:45:30;2.50;99.90
22765;DHT22;11549;50.852;3.816;2024-01-27T07:47:59;2.30;99.90
22765;DHT22;11549;50.852;3.816;2024-01-27T07:50:28;2.40;99.90
22765;DHT22;11549;50.852;3.816;2024-01-27T07:52:58;2.50;99.90
22765;DHT22;11549;50.852;3.816;2024-01-27T07:55:26;2.70;99.90
22765;DHT22;11549;50.852;3.816;2024-01-27T07:57:55;2.60;99.90
22765;DHT22;11549;50.852;3.816;2024-01-27T08:00:23;2.70;99.90
22765;DHT22;11549;50.852;3.816;2024-01-27T08:02:52;3.00;99.90
22765;DHT22;11549;50.852;3.816;2024-01-27T08:05:20;3.20;99.90
22765;DHT22;11549;50.852;3.816;2024-01-27T08:07:48;3.30;99.90
22765;DHT22;11549;50.852;3.816;2024-01-27T08:10:18;3.30;99.90
22765;DHT22;11549;50.852;3.816;2024-01-27T08:12:46;3.50;99.90
22765;DHT22;11549;50.852;3.816;2024-01-27T08:15:15;3.70;99.90
22765;DHT22;11549;50.852;3.816;2024-01-27T08:17:43;4.00;99.90
22765;DHT22;11549;50.852;3.816;2024-01-27T08:20:12;4.50;99.90
22765;DHT22;11549;50.852;3.816;2024-01-27T08:22:42;5.10;99.90
22765;DHT22;11549;50.852;3.816;2024-01-27T08:25:10;5.70;99.90
22765;DHT22;11549;50.852;3.816;2024-01-27T08:27:40;6.10;99.90
22765;DHT22;11549;50.852;3.816;2024-01-27T08:30:10;6.50;99.90
22765;DHT22;11549;50.852;3.816;2024-01-27T08:32:39;6.90;99.90
22765;DHT22;11549;50.852;3.816;2024-01-27T08:35:08;7.30;99.90
22765;DHT22;11549;50.852;3.816;2024-01-27T08:37:37;7.60;99.90
22765;DHT22;11549;50.852;3.816;2024-01-27T08:40:08;8.00;99.90
22765;DHT22;11549;50.852;3.816;2024-01-27T08:42:36;8.30;99.90
22765;DHT22;11549;50.852;3.816;2024-01-27T08:45:07;8.60;99.90
22765;DHT22;11549;50.852;3.816;2024-01-27T08:47:36;8.80;99.90
22765;DHT22;11549;50.852;3.816;2024-01-27T08:50:05;9.10;99.90
22765;DHT22;11549;50.852;3.816;2024-01-27T08:52:34;9.40;99.90
22765;DHT22;11549;50.852;3.816;2024-01-27T08:55:06;9.60;99.90
22765;DHT22;11549;50.852;3.816;2024-01-27T08:57:34;10.00;99.90
22765;DHT22;11549;50.852;3.816;2024-01-27T09:00:04;10.20;99.90
22765;DHT22;11549;50.852;3.816;2024-01-27T09:02:34;10.50;99.90
22765;DHT22;11549;50.852;3.816;2024-01-27T09:05:03;10.90;99.90
22765;DHT22;11549;50.852;3.816;2024-01-27T09:07:31;11.00;99.90
22765;DHT22;11549;50.852;3.816;2024-01-27T09:10:00;11.10;99.90
22765;DHT22;11549;50.852;3.816;2024-01-27T09:12:28;11.20;99.90
22765;DHT22;11549;50.852;3.816;2024-01-27T09:14:56;11.20;99.90
22765;DHT22;11549;50.852;3.816;2024-01-27T09:17:25;11.20;99.90
22765;DHT22;11549;50.852;3.816;2024-01-27T09:19:55;11.10;99.90
22765;DHT22;11549;50.852;3.816;2024-01-27T09:22:23;11.40;99.90
22765;DHT22;11549;50.852;3.816;2024-01-27T09:24:52;11.60;99.90
22765;DHT22;11549;50.852;3.816;2024-01-27T09:27:22;11.70;99.90
22765;DHT22;11549;50.852;3.816;2024-01-27T09:29:50;11.90;99.90
22765;DHT22;11549;50.852;3.816;2024-01-27T09:32:19;12.20;99.90
22765;DHT22;11549;50.852;3.816;2024-01-27T09:34:47;12.50;99.90
22765;DHT22;11549;50.852;3.816;2024-01-27T09:37:17;12.80;99.90
22765;DHT22;11549;50.852;3.816;2024-01-27T09:39:45;13.10;99.90
22765;DHT22;11549;50.852;3.816;2024-01-27T09:42:14;13.40;99.90
22765;DHT22;11549;50.852;3.816;2024-01-27T09:44:43;13.40;99.90
22765;DHT22;11549;50.852;3.816;2024-01-27T09:47:13;13.60;99.90
22765;DHT22;11549;50.852;3.816;2024-01-27T09:49:42;13.70;99.90
22765;DHT22;11549;50.852;3.816;2024-01-27T09:52:11;13.90;99.90
22765;DHT22;11549;50.852;3.816;2024-01-27T09:54:41;13.90;99.90
22765;DHT22;11549;50.852;3.816;2024-01-27T09:57:10;13.80;99.90
22765;DHT22;11549;50.852;3.816;2024-01-27T09:59:41;13.60;99.90
22765;DHT22;11549;50.852;3.816;2024-01-27T10:02:12;13.40;99.90
22765;DHT22;11549;50.852;3.816;2024-01-27T10:04:41;13.40;99.90
22765;DHT22;11549;50.852;3.816;2024-01-27T10:07:10;13.50;99.90
22765;DHT22;11549;50.852;3.816;2024-01-27T10:09:38;13.60;99.90
22765;DHT22;11549;50.852;3.816;2024-01-27T10:12:10;13.80;99.90
22765;DHT22;11549;50.852;3.816;2024-01-27T10:14:40;14.00;99.90
22765;DHT22;11549;50.852;3.816;2024-01-27T10:17:10;14.10;99.90
22765;DHT22;11549;50.852;3.816;2024-01-27T10:19:38;14.00;99.90
22765;DHT22;11549;50.852;3.816;2024-01-27T10:22:11;14.00;99.90
22765;DHT22;11549;50.852;3.816;2024-01-27T10:24:39;14.00;99.90
22765;DHT22;11549;50.852;3.816;2024-01-27T10:27:10;14.30;99.90
22765;DHT22;11549;50.852;3.816;2024-01-27T10:29:38;14.10;99.90
22765;DHT22;11549;50.852;3.816;2024-01-27T10:32:09;14.20;99.90
22765;DHT22;11549;50.852;3.816;2024-01-27T10:34:38;14.40;99.90
22765;DHT22;11549;50.852;3.816;2024-01-27T10:37:06;14.50;99.90
22765;DHT22;11549;50.852;3.816;2024-01-27T10:39:35;14.70;99.90
22765;DHT22;11549;50.852;3.816;2024-01-27T10:42:03;14.90;99.90
22765;DHT22;11549;50.852;3.816;2024-01-27T10:44:36;14.70;99.90
22765;DHT22;11549;50.852;3.816;2024-01-27T10:47:08;14.80;99.90
22765;DHT22;11549;50.852;3.816;2024-01-27T10:49:42;14.90;99.90
22765;DHT22;11549;50.852;3.816;2024-01-27T10:52:14;14.70;99.90
22765;DHT22;11549;50.852;3.816;2024-01-27T10:54:44;14.60;99.90
22765;DHT22;11549;50.852;3.816;2024-01-27T10:57:13;14.40;99.90
22765;DHT22;11549;50.852;3.816;2024-01-27T10:59:45;14.30;99.90
22765;DHT22;11549;50.852;3.816;2024-01-27T11:02:14;14.40;99.90
22765;DHT22;11549;50.852;3.816;2024-01-27T11:04:42;14.30;99.90
22765;DHT22;11549;50.852;3.816;2024-01-27T11:07:12;14.30;99.90
22765;DHT22;11549;50.852;3.816;2024-01-27T11:09:42;14.00;99.90
22765;DHT22;11549;50.852;3.816;2024-01-27T11:12:10;13.80;99.90
22765;DHT22;11549;50.852;3.816;2024-01-27T11:14:39;13.90;99.90
22765;DHT22;11549;50.852;3.816;2024-01-27T11:17:10;13.80;99.90
22765;DHT22;11549;50.852;3.816;2024-01-27T11:19:40;13.60;99.90
22765;DHT22;11549;50.852;3.816;2024-01-27T11:22:17;13.60;99.90
22765;DHT22;11549;50.852;3.816;2024-01-27T11:24:51;13.50;99.90
22765;DHT22;11549;50.852;3.816;2024-01-27T11:27:27;13.40;99.90
22765;DHT22;11549;50.852;3.816;2024-01-27T11:29:57;13.60;99.90
22765;DHT22;11549;50.852;3.816;2024-01-27T11:32:27;13.80;99.90
22765;DHT22;11549;50.852;3.816;2024-01-27T11:34:56;13.90;99.90
22765;DHT22;11549;50.852;3.816;2024-01-27T11:37:30;14.00;99.90
22765;DHT22;11549;50.852;3.816;2024-01-27T11:40:04;14.20;99.90
22765;DHT22;11549;50.852;3.816;2024-01-27T11:42:34;14.40;99.90
22765;DHT22;11549;50.852;3.816;2024-01-27T11:45:03;14.50;99.90
22765;DHT22;11549;50.852;3.816;2024-01-27T11:47:33;14.60;99.90
22765;DHT22;11549;50.852;3.816;2024-01-27T11:50:03;14.60;99.90
22765;DHT22;11549;50.852;3.816;2024-01-27T11:52:31;14.50;99.90
22765;DHT22;11549;50.852;3.816;2024-01-27T11:55:00;14.30;99.90
22765;DHT22;11549;50.852;3.816;2024-01-27T11:57:29;14.30;99.90
22765;DHT22;11549;50.852;3.816;2024-01-27T11:59:58;14.00;99.90
22765;DHT22;11549;50.852;3.816;2024-01-27T12:02:26;13.90;99.90
22765;DHT22;11549;50.852;3.816;2024-01-27T12:04:56;13.70;99.90
22765;DHT22;11549;50.852;3.816;2024-01-27T12:07:26;13.70;99.90
22765;DHT22;11549;50.852;3.816;2024-01-27T12:09:55;13.70;99.90
22765;DHT22;11549;50.852;3.816;2024-01-27T12:12:23;13.80;99.90
22765;DHT22;11549;50.852;3.816;2024-01-27T12:14:52;14.00;99.90
22765;DHT22;11549;50.852;3.816;2024-01-27T12:17:22;14.10;99.90
22765;DHT22;11549;50.852;3.816;2024-01-27T12:19:52;14.10;99.90
22765;DHT22;11549;50.852;3.816;2024-01-27T12:22:23;13.90;99.90
22765;DHT22;11549;50.852;3.816;2024-01-27T12:24:53;13.90;99.90
22765;DHT22;11549;50.852;3.816;2024-01-27T12:27:22;13.90;99.90
22765;DHT22;11549;50.852;3.816;2024-01-27T12:29:51;13.80;99.90
22765;DHT22;11549;50.852;3.816;2024-01-27T12:32:19;13.70;99.90
22765;DHT22;11549;50.852;3.816;2024-01-27T12:34:48;13.50;99.90
22765;DHT22;11549;50.852;3.816;2024-01-27T12:37:20;13.40;99.90
22765;DHT22;11549;50.852;3.816;2024-01-27T12:39:50;13.20;99.90
22765;DHT22;11549;50.852;3.816;2024-01-27T12:42:19;13.10;99.90
22765;DHT22;11549;50.852;3.816;2024-01-27T12:44:47;13.20;99.90
22765;DHT22;11549;50.852;3.816;2024-01-27T12:47:16;13.20;99.90
22765;DHT22;11549;50.852;3.816;2024-01-27T12:49:46;13.20;99.90
22765;DHT22;11549;50.852;3.816;2024-01-27T12:52:15;13.20;99.90
22765;DHT22;11549;50.852;3.816;2024-01-27T12:54:43;13.30;99.90
22765;DHT22;11549;50.852;3.816;2024-01-27T12:57:13;13.20;99.90
22765;DHT22;11549;50.852;3.816;2024-01-27T12:59:43;13.10;99.90
22765;DHT22;11549;50.852;3.816;2024-01-27T13:02:12;13.20;99.90
22765;DHT22;11549;50.852;3.816;2024-01-27T13:04:42;13.20;99.90
22765;DHT22;11549;50.852;3.816;2024-01-27T13:07:10;13.10;99.90
22765;DHT22;11549;50.852;3.816;2024-01-27T13:09:39;12.90;99.90
22765;DHT22;11549;50.852;3.816;2024-01-27T13:12:08;12.60;99.90
22765;DHT22;11549;50.852;3.816;2024-01-27T13:14:37;12.50;99.90
22765;DHT22;11549;50.852;3.816;2024-01-27T13:17:06;12.40;99.90
22765;DHT22;11549;50.852;3.816;2024-01-27T13:19:35;12.40;99.90
22765;DHT22;11549;50.852;3.816;2024-01-27T13:22:03;12.30;99.90
22765;DHT22;11549;50.852;3.816;2024-01-27T13:24:33;12.20;99.90
22765;DHT22;11549;50.852;3.816;2024-01-27T13:27:03;12.10;99.90
22765;DHT22;11549;50.852;3.816;2024-01-27T13:29:32;12.20;99.90
22765;DHT22;11549;50.852;3.816;2024-01-27T13:32:02;11.90;99.90
22765;DHT22;11549;50.852;3.816;2024-01-27T13:34:30;11.50;99.90
22765;DHT22;11549;50.852;3.816;2024-01-27T13:37:00;11.20;99.90
22765;DHT22;11549;50.852;3.816;2024-01-27T13:39:30;11.10;99.90
22765;DHT22;11549;50.852;3.816;2024-01-27T13:41:59;11.00;99.90
22765;DHT22;11549;50.852;3.816;2024-01-27T13:44:27;11.00;99.90
22765;DHT22;11549;50.852;3.816;2024-01-27T13:46:57;11.00;99.90
22765;DHT22;11549;50.852;3.816;2024-01-27T13:49:29;10.90;99.90
22765;DHT22;11549;50.852;3.816;2024-01-27T13:51:58;10.80;99.90
22765;DHT22;11549;50.852;3.816;2024-01-27T13:54:29;10.70;99.90
22765;DHT22;11549;50.852;3.816;2024-01-27T13:56:58;10.70;99.90
22765;DHT22;11549;50.852;3.816;2024-01-27T13:59:27;10.80;99.90
22765;DHT22;11549;50.852;3.816;2024-01-27T14:01:55;10.70;99.90
22765;DHT22;11549;50.852;3.816;2024-01-27T14:04:24;10.80;99.90
22765;DHT22;11549;50.852;3.816;2024-01-27T14:06:55;10.70;99.90
22765;DHT22;11549;50.852;3.816;2024-01-27T14:09:24;10.70;99.90
22765;DHT22;11549;50.852;3.816;2024-01-27T14:11:53;10.70;99.90
22765;DHT22;11549;50.852;3.816;2024-01-27T14:14:22;10.70;99.90
22765;DHT22;11549;50.852;3.816;2024-01-27T14:16:50;10.60;99.90
22765;DHT22;11549;50.852;3.816;2024-01-27T14:19:19;10.60;99.90
22765;DHT22;11549;50.852;3.816;2024-01-27T14:21:47;10.60;99.90
22765;DHT22;11549;50.852;3.816;2024-01-27T14:24:17;10.60;99.90
22765;DHT22;11549;50.852;3.816;2024-01-27T14:26:45;10.60;99.90
22765;DHT22;11549;50.852;3.816;2024-01-27T14:29:14;10.60;99.90
22765;DHT22;11549;50.852;3.816;2024-01-27T14:31:44;10.60;99.90
22765;DHT22;11549;50.852;3.816;2024-01-27T14:34:12;10.40;99.90
22765;DHT22;11549;50.852;3.816;2024-01-27T14:36:41;10.20;99.90
22765;DHT22;11549;50.852;3.816;2024-01-27T14:39:11;10.20;99.90
22765;DHT22;11549;50.852;3.816;2024-01-27T14:41:40;10.20;99.90
22765;DHT22;11549;50.852;3.816;2024-01-27T14:44:09;10.00;99.90
22765;DHT22;11549;50.852;3.816;2024-01-27T14:46:38;10.00;99.90
22765;DHT22;11549;50.852;3.816;2024-01-27T14:49:07;10.00;99.90
22765;DHT22;11549;50.852;3.816;2024-01-27T14:51:36;10.00;99.90
22765;DHT22;11549;50.852;3.816;2024-01-27T14:54:04;9.90;99.90
22765;DHT22;11549;50.852;3.816;2024-01-27T14:56:33;10.00;99.90
22765;DHT22;11549;50.852;3.816;2024-01-27T14:59:03;9.90;99.90
22765;DHT22;11549;50.852;3.816;2024-01-27T15:01:34;10.00;99.90
22765;DHT22;11549;50.852;3.816;2024-01-27T15:04:03;9.90;99.90
22765;DHT22;11549;50.852;3.816;2024-01-27T15:06:31;9.90;99.90
22765;DHT22;11549;50.852;3.816;2024-01-27T15:09:00;9.80;99.90
22765;DHT22;11549;50.852;3.816;2024-01-27T15:11:29;9.70;99.90
22765;DHT22;11549;50.852;3.816;2024-01-27T15:13:57;9.60;99.90
22765;DHT22;11549;50.852;3.816;2024-01-27T15:16:27;9.60;99.90
22765;DHT22;11549;50.852;3.816;2024-01-27T15:18:59;9.50;99.90
22765;DHT22;11549;50.852;3.816;2024-01-27T15:21:28;9.40;99.90
22765;DHT22;11549;50.852;3.816;2024-01-27T15:23:57;9.50;99.90
22765;DHT22;11549;50.852;3.816;2024-01-27T15:26:26;9.50;99.90
22765;DHT22;11549;50.852;3.816;2024-01-27T15:28:54;9.60;99.90
22765;DHT22;11549;50.852;3.816;2024-01-27T15:31:23;9.60;99.90
22765;DHT22;11549;50.852;3.816;2024-01-27T15:33:53;9.50;99.90
22765;DHT22;11549;50.852;3.816;2024-01-27T15:36:22;9.20;99.90
22765;DHT22;11549;50.852;3.816;2024-01-27T15:38:50;9.20;99.90
22765;DHT22;11549;50.852;3.816;2024-01-27T15:41:19;9.20;99.90
22765;DHT22;11549;50.852;3.816;2024-01-27T15:43:47;9.10;99.90
22765;DHT22;11549;50.852;3.816;2024-01-27T15:46:16;9.10;99.90
22765;DHT22;11549;50.852;3.816;2024-01-27T15:48:45;9.10;99.90
22765;DHT22;11549;50.852;3.816;2024-01-27T15:51:15;9.10;99.90